Time;durP1;ratioP1;P1;durP2;ratioP2;P2;SDS_P1;SDS_P2;PMS_P1;PMS_P2;Temp;Humidity;BMP_temperature;BMP_pressure;BME280_temperature;BME280_humidity;BME280_pressure;Samples;Min_cycle;Max_cycle;Signal;HPM_P1;HPM_P2
2022/04/18 00:02:25;;;;;;;16.15;7.50;;;;;;;2.84;59.36;101242.50;1639523;87;25989;-77
2022/04/18 00:04:51;;;;;;;12.00;7.25;;;;;;;2.81;59.40;101244.06;1640729;87;26571;-78
2022/04/18 00:07:18;;;;;;;15.45;7.45;;;;;;;2.77;59.44;101243.47;1638616;87;26512;-77
2022/04/18 00:09:44;;;;;;;13.95;6.53;;;;;;;2.74;59.48;101241.05;1639816;87;28292;-76
2022/04/18 00:12:10;;;;;;;16.05;8.48;;;;;;;2.71;59.51;101239.14;1639466;87;25944;-77
2022/04/18 00:14:37;;;;;;;12.07;7.50;;;;;;;2.69;59.61;101238.42;1615670;87;26061;-78
2022/04/18 00:17:08;;;;;;;14.23;7.03;;;;;;;2.66;59.67;101236.01;1583604;88;25902;-77
2022/04/18 00:19:31;;;;;;;14.90;7.80;;;;;;;2.63;59.75;101237.59;1589421;90;25814;-77
2022/04/18 00:21:59;;;;;;;13.75;7.08;;;;;;;2.61;59.83;101231.58;1636854;87;27522;-78
2022/04/18 00:24:25;;;;;;;15.10;7.20;;;;;;;2.58;59.87;101233.98;1640746;86;26464;-78
2022/04/18 00:26:51;;;;;;;14.45;7.03;;;;;;;2.53;59.87;101232.16;1637971;87;25882;-77
2022/04/18 00:29:17;;;;;;;17.62;8.93;;;;;;;2.49;59.96;101228.55;1638278;87;27067;-78
2022/04/18 00:31:44;;;;;;;14.65;7.72;;;;;;;2.47;60.04;101229.16;1630732;87;26505;-77
2022/04/18 00:34:10;;;;;;;20.40;8.20;;;;;;;2.44;60.10;101230.23;1637734;87;27460;-78
2022/04/18 00:36:36;;;;;;;14.00;7.00;;;;;;;2.42;60.11;101227.38;1641045;86;26604;-77
2022/04/18 00:39:02;;;;;;;18.25;8.05;;;;;;;2.39;60.20;101224.95;1640864;85;26018;-78
2022/04/18 00:41:29;;;;;;;14.47;7.42;;;;;;;2.31;60.34;101229.02;1587482;89;25859;-77
2022/04/18 00:43:55;;;;;;;14.98;7.85;;;;;;;2.25;60.36;101224.22;1613781;87;25912;-78
2022/04/18 00:46:22;;;;;;;14.40;6.85;;;;;;;2.19;60.54;101219.87;1622736;87;28316;-78
2022/04/18 00:48:49;;;;;;;16.93;8.15;;;;;;;2.17;60.66;101213.88;1615307;87;25971;-78
2022/04/18 00:51:21;;;;;;;16.77;7.55;;;;;;;2.12;60.86;101212.05;1612659;87;26472;-77
2022/04/18 00:53:54;;;;;;;16.97;8.35;;;;;;;2.09;60.95;101211.84;1612906;87;25902;-77
2022/04/18 00:56:21;;;;;;;15.88;8.25;;;;;;;2.07;61.11;101205.83;1608947;87;25834;-79
2022/04/18 00:58:49;;;;;;;14.68;8.60;;;;;;;2.06;61.42;101206.77;1589035;87;27556;-78
2022/04/18 01:01:18;;;;;;;18.37;9.28;;;;;;;2.06;61.42;101205.92;1615868;87;26571;-78
2022/04/18 01:03:46;;;;;;;15.72;7.92;;;;;;;2.05;61.56;101203.75;1590584;87;35243;-78
2022/04/18 01:06:15;;;;;;;14.98;7.65;;;;;;;2.03;61.60;101195.61;1610080;87;25898;-77
2022/04/18 01:08:43;;;;;;;14.63;7.05;;;;;;;2.02;61.67;101202.69;1590070;87;26596;-78
2022/04/18 01:11:10;;;;;;;16.32;7.90;;;;;;;1.98;61.96;101201.24;1620787;87;26927;-78
2022/04/18 01:13:47;;;;;;;16.75;7.28;;;;;;;1.95;62.09;101199.30;1562048;88;26777;-77
2022/04/18 01:16:16;;;;;;;17.55;7.75;;;;;;;1.89;62.26;101193.16;1596455;87;25895;-77
2022/04/18 01:18:48;;;;;;;12.93;6.78;;;;;;;1.87;62.57;101191.12;1612117;87;25965;-78
2022/04/18 01:21:19;;;;;;;16.45;8.03;;;;;;;1.87;62.60;101189.33;1598198;88;25962;-78
2022/04/18 01:23:50;;;;;;;15.18;8.65;;;;;;;1.84;62.75;101185.59;1592909;87;28103;-78
2022/04/18 01:29:12;;;;;;;13.95;7.62;;;;;;;1.80;62.99;101184.14;1616364;87;25954;-78
2022/04/18 01:31:40;;;;;;;14.05;8.38;;;;;;;1.79;63.26;101188.23;1623501;87;26586;-77
2022/04/18 01:34:08;;;;;;;14.55;7.15;;;;;;;1.78;63.33;101181.25;1614537;87;26041;-77
2022/04/18 01:36:34;;;;;;;14.83;7.17;;;;;;;1.78;63.56;101183.41;1626200;87;27037;-77
2022/04/18 01:39:03;;;;;;;17.92;8.13;;;;;;;1.75;63.62;101179.70;1614039;87;25938;-77
2022/04/18 01:41:29;;;;;;;13.32;7.40;;;;;;;1.75;63.79;101184.14;1619387;87;25868;-78
2022/04/18 01:43:58;;;;;;;17.42;7.65;;;;;;;1.73;64.05;101178.98;1599472;87;25891;-78
2022/04/18 01:46:24;;;;;;;13.83;7.03;;;;;;;1.71;64.11;101180.05;1613672;87;26397;-78
2022/04/18 01:48:51;;;;;;;16.40;7.58;;;;;;;1.70;64.27;101181.84;1617096;87;27499;-78
2022/04/18 01:51:19;;;;;;;14.35;7.17;;;;;;;1.69;64.32;101172.72;1632134;87;25833;-78
2022/04/18 01:53:47;;;;;;;12.20;7.15;;;;;;;1.70;64.48;101175.23;1623145;87;25752;-77
2022/04/18 01:56:15;;;;;;;14.65;7.67;;;;;;;1.72;64.70;101174.64;1618849;87;25863;-78
2022/04/18 01:58:41;;;;;;;13.20;7.10;;;;;;;1.74;64.70;101167.91;1616438;87;25892;-78
2022/04/18 02:01:08;;;;;;;11.40;7.35;;;;;;;1.77;64.62;101166.38;1631052;87;27653;-77
2022/04/18 02:03:34;;;;;;;14.95;6.95;;;;;;;1.77;64.69;101161.09;1627874;87;25827;-78
2022/04/18 02:06:00;;;;;;;14.73;7.20;;;;;;;1.75;65.06;101157.73;1638214;87;25900;-77
2022/04/18 02:08:27;;;;;;;14.05;7.00;;;;;;;1.73;64.90;101157.86;1641077;86;26558;-78
2022/04/18 02:10:54;;;;;;;12.88;7.58;;;;;;;1.71;64.80;101155.78;1641444;87;26226;-77
2022/04/18 02:13:22;;;;;;;14.63;8.08;;;;;;;1.70;64.77;101155.91;1611268;88;27442;-78
2022/04/18 02:15:48;;;;;;;14.38;6.97;;;;;;;1.70;64.95;101157.23;1612582;88;25334;-77
2022/04/18 02:18:15;;;;;;;12.98;6.25;;;;;;;1.68;64.93;101151.22;1640741;87;25881;-78
2022/04/18 02:20:41;;;;;;;13.15;7.28;;;;;;;1.64;65.00;101157.70;1638632;87;26701;-78
2022/04/18 02:23:08;;;;;;;14.10;7.80;;;;;;;1.59;65.12;101154.08;1612359;87;26617;-78
2022/04/18 02:25:34;;;;;;;12.63;6.87;;;;;;;1.58;65.28;101146.28;1611454;88;27551;-78
2022/04/18 02:28:03;;;;;;;12.82;7.30;;;;;;;1.55;65.44;101149.52;1630264;87;26758;-78
2022/04/18 02:30:30;;;;;;;12.00;7.20;;;;;;;1.52;65.49;101146.25;1617571;87;25938;-78
2022/04/18 02:32:58;;;;;;;10.72;6.95;;;;;;;1.50;65.88;101143.73;1640276;86;26667;-79
2022/04/18 02:35:26;;;;;;;12.37;6.87;;;;;;;1.48;65.75;101144.80;1641200;87;25859;-77
2022/04/18 02:37:56;;;;;;;11.73;7.08;;;;;;;1.49;65.92;101143.86;1640176;87;27484;-78
2022/04/18 02:40:24;;;;;;;11.55;7.42;;;;;;;1.50;66.00;101145.53;1640910;87;25796;-77
2022/04/18 02:42:51;;;;;;;15.63;7.37;;;;;;;1.51;66.28;101145.91;1636298;87;26608;-77
2022/04/18 02:45:21;;;;;;;11.95;7.10;;;;;;;1.49;66.37;101139.90;1640811;87;26024;-78
2022/04/18 02:47:59;;;;;;;11.18;6.62;;;;;;;1.49;66.26;101141.22;1610141;87;26214;-78
2022/04/18 02:50:27;;;;;;;14.98;7.75;;;;;;;1.48;66.44;101141.70;1640518;86;27764;-77
2022/04/18 02:52:54;;;;;;;15.38;7.65;;;;;;;1.49;66.42;101138.58;1639688;87;25893;-78
2022/04/18 02:55:22;;;;;;;13.05;6.92;;;;;;;1.49;66.63;101136.80;1640783;87;25833;-78
2022/04/18 02:57:48;;;;;;;13.43;6.85;;;;;;;1.50;66.64;101133.17;1641120;87;26073;-77
2022/04/18 03:00:16;;;;;;;15.63;6.97;;;;;;;1.51;66.79;101130.91;1640313;87;26017;-77
2022/04/18 03:02:44;;;;;;;13.30;7.40;;;;;;;1.53;66.74;101136.92;1638342;86;27504;-77
2022/04/18 03:05:12;;;;;;;12.82;7.47;;;;;;;1.53;66.83;101137.39;1639850;87;26560;-77
2022/04/18 03:07:39;;;;;;;13.62;7.12;;;;;;;1.54;66.79;101135.09;1639854;86;25432;-79
2022/04/18 03:10:07;;;;;;;13.38;8.28;;;;;;;1.54;66.83;101134.63;1641649;87;25923;-78
2022/04/18 03:12:33;;;;;;;15.85;7.50;;;;;;;1.55;66.77;101133.69;1638770;87;26463;-78
2022/04/18 03:14:59;;;;;;;11.33;7.30;;;;;;;1.55;66.78;101132.83;1640576;87;27463;-78
2022/04/18 03:17:27;;;;;;;13.35;7.35;;;;;;;1.55;66.84;101138.11;1586268;90;26595;-77
2022/04/18 03:19:53;;;;;;;11.73;6.85;;;;;;;1.54;66.93;101133.30;1615302;88;26013;-77
2022/04/18 03:22:20;;;;;;;11.78;7.60;;;;;;;1.53;66.85;101131.64;1640491;87;26045;-80
2022/04/18 03:24:47;;;;;;;15.38;8.28;;;;;;;1.51;67.00;101137.52;1640806;87;25810;-78
2022/04/18 03:27:20;;;;;;;;;;;;;;;1.46;66.96;101129.56;1635196;87;27578;-78
2022/04/18 03:29:45;;;;;;;10.88;7.40;;;;;;;1.42;67.21;101126.80;1637045;87;26121;-78
2022/04/18 03:32:13;;;;;;;13.22;7.67;;;;;;;1.37;67.34;101125.81;1632119;87;25833;-78
2022/04/18 03:34:39;;;;;;;16.25;7.78;;;;;;;1.33;67.45;101130.97;1640099;87;25814;-77
2022/04/18 03:39:50;;;;;;;12.18;7.28;;;;;;;1.22;67.81;101130.10;1612136;88;27570;-78
2022/04/18 03:42:19;;;;;;;13.85;7.87;;;;;;;1.16;68.16;101127.89;1640543;87;25833;-78
2022/04/18 03:44:48;;;;;;;13.43;6.75;;;;;;;1.14;68.31;101124.06;1619016;87;25942;-77
2022/04/18 03:47:15;;;;;;;9.45;6.30;;;;;;;1.10;68.32;101128.35;1630033;87;25779;-76
2022/04/18 03:49:43;;;;;;;14.18;7.58;;;;;;;1.06;68.78;101123.80;1639041;87;25854;-76
2022/04/18 03:52:10;;;;;;;12.40;7.58;;;;;;;1.02;68.88;101129.41;1640036;85;27496;-76
2022/04/18 03:54:39;;;;;;;10.63;6.47;;;;;;;0.97;68.97;101127.09;1617616;87;25870;-76
2022/04/18 03:57:06;;;;;;;13.25;7.62;;;;;;;0.92;69.48;101121.81;1628763;87;26394;-76
2022/04/18 03:59:41;;;;;;;14.53;7.65;;;;;;;0.89;69.64;101122.88;1635699;87;26568;-76
2022/04/18 04:02:08;;;;;;;10.55;7.25;;;;;;;0.84;69.98;101121.03;1640442;87;25906;-76
2022/04/18 04:04:37;;;;;;;11.55;7.53;;;;;;;0.81;70.27;101122.60;1641314;87;27490;-78
2022/04/18 04:07:04;;;;;;;11.28;7.42;;;;;;;0.78;70.17;101124.13;1638967;86;25958;-77
2022/04/18 04:09:33;;;;;;;17.52;7.75;;;;;;;0.73;70.35;101114.38;1639716;86;26614;-77
2022/04/18 04:11:59;;;;;;;14.20;7.62;;;;;;;0.73;70.65;101120.97;1641376;87;25968;-77
2022/04/18 04:14:27;;;;;;;13.00;7.53;;;;;;;0.72;70.98;101120.16;1611970;88;25825;-77
2022/04/18 04:16:54;;;;;;;13.68;7.72;;;;;;;0.72;71.19;101124.11;1635860;87;27515;-77
2022/04/18 04:19:21;;;;;;;13.15;7.75;;;;;;;0.72;71.27;101125.42;1637547;87;26498;-77
2022/04/18 04:21:47;;;;;;;12.18;6.83;;;;;;;0.71;71.69;101121.56;1618112;87;25550;-77
2022/04/18 04:24:13;;;;;;;13.98;7.20;;;;;;;0.74;71.67;101129.27;1639603;87;25823;-76
2022/04/18 04:26:44;;;;;;;9.20;6.35;;;;;;;0.75;72.02;101128.30;1639879;87;25941;-77
2022/04/18 04:29:12;;;;;;;13.05;7.25;;;;;;;0.77;71.94;101131.19;1640596;87;28582;-77
2022/04/18 04:31:55;;;;;;;12.37;7.75;;;;;;;0.79;72.76;101129.78;1639175;87;25804;-77
2022/04/18 04:34:22;;;;;;;12.85;8.30;;;;;;;0.85;72.24;101129.33;1612951;88;25817;-77
2022/04/18 04:36:50;;;;;;;11.10;7.30;;;;;;;0.90;71.96;101127.68;1616072;87;25931;-77
2022/04/18 04:39:18;;;;;;;11.50;7.65;;;;;;;0.94;72.10;101136.55;1614685;88;25696;-77
2022/04/18 04:41:45;;;;;;;12.10;7.42;;;;;;;0.98;72.16;101139.35;1612870;88;27537;-77
2022/04/18 04:44:11;;;;;;;14.65;7.53;;;;;;;1.02;72.00;101137.31;1614433;88;26632;-77
2022/04/18 04:46:44;;;;;;;13.00;7.58;;;;;;;1.06;72.02;101138.30;1610860;88;26669;-76
2022/04/18 04:49:12;;;;;;;15.68;8.00;;;;;;;1.12;72.09;101135.67;1614660;87;26766;-76
2022/04/18 04:51:40;;;;;;;13.20;7.20;;;;;;;1.16;71.99;101135.34;1612209;88;25814;-76
2022/04/18 04:54:08;;;;;;;13.95;7.28;;;;;;;1.23;71.98;101136.58;1613177;88;27504;-77
2022/04/18 04:56:36;;;;;;;11.00;6.33;;;;;;;1.32;71.94;101140.33;1613958;87;26445;-77
2022/04/18 04:59:03;;;;;;;15.50;6.75;;;;;;;1.39;71.65;101146.33;1608907;87;25799;-76
2022/04/18 05:01:30;;;;;;;10.20;6.00;;;;;;;1.46;71.48;101143.61;1614668;87;25861;-78
2022/04/18 05:03:59;;;;;;;9.55;5.87;;;;;;;1.55;71.50;101146.88;1603766;87;25870;-77
2022/04/18 05:06:26;;;;;;;11.80;7.20;;;;;;;1.64;71.22;101144.02;1614779;87;27742;-77
2022/04/18 05:08:55;;;;;;;10.85;6.40;;;;;;;1.74;71.02;101148.11;1626280;87;25973;-76
2022/04/18 05:11:22;;;;;;;10.78;6.55;;;;;;;1.81;70.86;101140.94;1622806;87;25845;-76
2022/04/18 05:13:50;;;;;;;13.53;6.17;;;;;;;1.90;70.59;101144.20;1613119;87;26044;-77
2022/04/18 05:16:18;;;;;;;13.95;6.70;;;;;;;2.01;70.40;101147.33;1612044;87;25790;-77
2022/04/18 05:18:49;;;;;;;;;;;;;;;2.10;70.05;101147.91;1607947;87;27583;-77
2022/04/18 05:21:15;;;;;;;10.80;6.53;;;;;;;2.19;69.90;101145.88;1612920;87;25961;-76
2022/04/18 05:23:42;;;;;;;10.00;6.30;;;;;;;2.27;69.85;101146.96;1589176;87;26531;-77
2022/04/18 05:26:09;;;;;;;11.03;6.62;;;;;;;2.37;69.48;101148.89;1622378;87;25933;-77
2022/04/18 05:28:37;;;;;;;11.80;7.05;;;;;;;2.47;69.36;101148.04;1616261;87;26080;-77
2022/04/18 05:31:05;;;;;;;10.20;6.15;;;;;;;2.59;69.15;101152.84;1625806;87;27713;-78
2022/04/18 05:33:32;;;;;;;9.88;5.85;;;;;;;2.71;69.22;101148.73;1583809;88;25856;-77
2022/04/18 05:36:06;;;;;;;9.90;6.25;;;;;;;2.81;68.66;101148.82;1639954;85;25738;-76
2022/04/18 05:38:34;;;;;;;16.45;7.00;;;;;;;2.90;67.96;101143.64;1641812;85;25790;-77
2022/04/18 05:41:14;;;;;;;13.00;6.20;;;;;;;3.02;67.68;101141.78;1639217;85;25992;-77
2022/04/18 05:43:41;;;;;;;10.23;5.92;;;;;;;3.13;67.54;101143.92;1641193;85;27666;-79
2022/04/18 05:46:08;;;;;;;11.30;5.97;;;;;;;3.24;67.16;101143.03;1641299;85;25938;-77
2022/04/18 05:48:34;;;;;;;11.83;6.28;;;;;;;3.35;67.25;101137.70;1641235;85;25980;-78
2022/04/18 05:51:01;;;;;;;9.20;5.60;;;;;;;3.50;67.18;101146.17;1638413;87;25802;-77
2022/04/18 05:53:30;;;;;;;15.72;5.62;;;;;;;3.61;66.17;101135.52;1639568;87;26008;-77
2022/04/18 05:56:05;;;;;;;8.18;5.00;;;;;;;3.71;65.93;101138.59;1641415;85;27730;-77
2022/04/18 05:58:34;;;;;;;6.90;4.83;;;;;;;3.85;66.03;101140.89;1641329;86;26469;-77
2022/04/18 06:01:02;;;;;;;7.83;4.78;;;;;;;4.02;66.02;101137.30;1641381;87;26495;-78
2022/04/18 06:03:28;;;;;;;10.13;5.45;;;;;;;4.17;65.47;101139.45;1640440;87;25851;-77
2022/04/18 06:05:54;;;;;;;8.05;4.67;;;;;;;4.28;64.47;101135.86;1638251;85;26234;-78
2022/04/18 06:08:21;;;;;;;7.87;4.95;;;;;;;4.39;64.64;101134.45;1602421;87;26889;-78
2022/04/18 06:10:52;;;;;;;7.33;4.72;;;;;;;4.54;63.54;101135.76;1614593;87;26442;-77
2022/04/18 06:13:29;;;;;;;7.40;4.62;;;;;;;4.67;63.36;101137.20;1612105;87;25897;-78
2022/04/18 06:15:56;;;;;;;7.70;4.65;;;;;;;4.78;62.81;101134.92;1644864;85;26127;-78
2022/04/18 06:18:23;;;;;;;6.65;4.50;;;;;;;4.90;62.90;101134.33;1651612;85;25941;-77
2022/04/18 06:20:50;;;;;;;5.70;4.22;;;;;;;5.04;62.40;101132.59;1641443;85;27516;-77
2022/04/18 06:23:16;;;;;;;7.53;4.35;;;;;;;5.15;61.73;101135.12;1646752;85;25939;-77
2022/04/18 06:25:44;;;;;;;7.47;4.78;;;;;;;5.31;61.86;101132.73;1641798;85;25897;-77
2022/04/18 06:28:15;;;;;;;6.15;4.10;;;;;;;5.43;60.89;101127.64;1651491;85;26979;-77
2022/04/18 06:30:42;;;;;;;6.93;4.27;;;;;;;5.52;60.36;101124.12;1645728;85;26187;-78
2022/04/18 06:33:12;;;;;;;7.72;4.35;;;;;;;5.64;60.47;101125.66;1639967;85;27742;-77
2022/04/18 06:35:41;;;;;;;4.92;3.40;;;;;;;5.76;59.08;101125.84;1650870;85;25835;-76
2022/04/18 06:38:08;;;;;;;6.42;3.72;;;;;;;5.84;57.44;101127.31;1642586;85;25812;-78
2022/04/18 06:40:53;;;;;;;7.40;3.95;;;;;;;5.90;57.28;101128.06;1647554;85;26644;-77
2022/04/18 06:43:20;;;;;;;7.55;3.60;;;;;;;5.98;56.37;101128.20;1646439;85;25878;-78
2022/04/18 06:45:48;;;;;;;6.80;3.75;;;;;;;6.06;57.24;101128.80;1649812;85;27468;-78
2022/04/18 06:48:15;;;;;;;4.97;3.40;;;;;;;6.16;56.80;101131.77;1640853;87;25857;-78
2022/04/18 06:50:46;;;;;;;5.58;3.27;;;;;;;6.28;57.05;101126.27;1593728;87;26230;-78
2022/04/18 06:53:31;;;;;;;6.40;3.33;;;;;;;6.39;56.07;101126.09;1641713;87;25922;-78
2022/04/18 06:59:03;;;;;;;4.20;2.87;;;;;;;6.58;55.95;101126.84;1640457;87;27475;-78
2022/04/18 07:01:30;;;;;;;5.67;3.37;;;;;;;6.73;56.19;101130.68;1626918;87;25819;-78
2022/04/18 07:03:56;;;;;;;6.08;3.77;;;;;;;6.86;55.28;101124.99;1611950;87;25943;-78
2022/04/18 07:06:23;;;;;;;5.60;3.02;;;;;;;6.98;54.20;101122.45;1613335;88;25878;-77
2022/04/18 07:08:50;;;;;;;4.62;2.50;;;;;;;7.08;54.05;101125.88;1589790;88;25827;-77
2022/04/18 07:11:33;;;;;;;5.00;2.58;;;;;;;7.18;53.72;101119.16;1587255;88;27510;-78
2022/04/18 07:14:00;;;;;;;5.45;2.95;;;;;;;7.30;52.73;101117.44;1572480;88;25729;-77
2022/04/18 07:16:29;;;;;;;3.60;2.12;;;;;;;7.38;53.03;101113.50;1617163;87;26751;-78
2022/04/18 07:18:54;;;;;;;5.40;2.42;;;;;;;7.46;51.15;101116.75;1610418;87;25851;-77
2022/04/18 07:21:20;;;;;;;3.80;2.35;;;;;;;7.58;50.64;101115.50;1641725;86;25821;-77
2022/04/18 07:23:47;;;;;;;2.22;1.90;;;;;;;7.66;49.37;101116.39;1641233;87;27467;-77
2022/04/18 07:26:13;;;;;;;4.90;2.55;;;;;;;7.71;50.07;101113.27;1611892;87;26447;-78
2022/04/18 07:28:39;;;;;;;3.50;2.15;;;;;;;7.81;50.47;101114.00;1614011;88;25314;-78
2022/04/18 07:31:07;;;;;;;8.33;2.42;;;;;;;7.94;49.57;101117.58;1632375;87;25798;-77
2022/04/18 07:33:34;;;;;;;3.65;2.00;;;;;;;8.02;48.25;101113.65;1620201;87;25923;-77
2022/04/18 07:36:03;;;;;;;1.80;1.25;;;;;;;8.06;48.10;101110.48;1618424;87;27488;-78
2022/04/18 07:38:49;;;;;;;2.62;1.62;;;;;;;8.11;47.63;101109.52;1617941;87;25867;-76
2022/04/18 07:41:23;;;;;;;2.98;1.80;;;;;;;8.17;45.05;101118.22;1644741;86;25955;-78
2022/04/18 07:43:50;;;;;;;2.85;1.67;;;;;;;8.18;45.69;101105.72;1649712;85;25781;-77
2022/04/18 07:46:18;;;;;;;2.58;1.35;;;;;;;8.22;45.42;101109.25;1614040;87;25982;-77
2022/04/18 07:48:47;;;;;;;2.52;1.27;;;;;;;8.24;45.06;101105.92;1614710;88;27464;-77
2022/04/18 07:51:34;;;;;;;2.35;1.70;;;;;;;8.29;43.47;101113.00;1617329;87;26518;-78
2022/04/18 07:54:04;;;;;;;4.62;1.70;;;;;;;8.35;46.22;101107.02;1605429;88;25880;-77
2022/04/18 07:56:30;;;;;;;2.33;1.12;;;;;;;8.39;45.08;101112.86;1613128;87;26154;-78
2022/04/18 07:58:57;;;;;;;3.80;1.85;;;;;;;8.49;44.63;101105.55;1586774;90;25967;-78
2022/04/18 08:01:28;;;;;;;3.65;1.72;;;;;;;8.59;44.92;101108.95;1586334;90;27576;-78
2022/04/18 08:03:55;;;;;;;3.00;1.45;;;;;;;8.75;46.12;101098.80;1586750;90;26039;-78
2022/04/18 08:06:21;;;;;;;3.37;1.60;;;;;;;8.80;44.78;101100.49;1585782;90;25793;-78
2022/04/18 08:08:52;;;;;;;1.98;1.40;;;;;;;8.72;45.01;101095.98;1586174;90;26564;-77
2022/04/18 08:11:18;;;;;;;5.72;2.10;;;;;;;8.75;44.02;101092.96;1586505;90;25929;-77
2022/04/18 08:13:48;;;;;;;2.08;1.05;;;;;;;8.70;43.79;101095.80;1586784;90;27558;-77
2022/04/18 08:16:33;;;;;;;2.05;1.40;;;;;;;8.80;43.62;101096.48;1583806;90;25845;-77
2022/04/18 08:19:01;;;;;;;1.15;0.90;;;;;;;8.85;42.90;101085.66;1586659;90;25869;-76
2022/04/18 08:21:27;;;;;;;2.15;1.20;;;;;;;8.97;40.64;101100.86;1586616;90;25791;-76
2022/04/18 08:23:54;;;;;;;0.95;0.90;;;;;;;8.89;40.72;101097.69;1584193;90;26562;-78
2022/04/18 08:26:33;;;;;;;1.42;0.90;;;;;;;8.87;40.66;101093.50;1586623;88;27501;-77
2022/04/18 08:29:01;;;;;;;2.72;0.90;;;;;;;8.97;40.65;101092.84;1612134;87;25973;-77
2022/04/18 08:31:29;;;;;;;1.70;1.10;;;;;;;9.02;41.87;101094.53;1638932;85;25792;-77
2022/04/18 08:34:06;;;;;;;2.33;1.07;;;;;;;9.04;42.06;101090.70;1640888;85;25864;-77
2022/04/18 08:36:33;;;;;;;2.27;1.12;;;;;;;9.13;42.28;101093.70;1641604;85;25983;-77
2022/04/18 08:39:00;;;;;;;1.98;0.90;;;;;;;9.25;40.78;101092.89;1641672;85;28283;-78
2022/04/18 08:41:40;;;;;;;5.08;1.20;;;;;;;9.26;39.41;101083.36;1641544;85;26724;-78
2022/04/18 08:44:09;;;;;;;1.85;0.75;;;;;;;9.11;39.50;101079.67;1640786;85;25968;-77
2022/04/18 08:46:36;;;;;;;2.00;0.80;;;;;;;8.99;36.84;101079.66;1640231;87;26566;-78
2022/04/18 08:54:17;;;;;;;1.80;1.12;;;;;;;8.92;37.96;101076.47;1639161;85;25750;-77
2022/04/18 08:56:44;;;;;;;2.30;1.20;;;;;;;8.94;39.73;101071.83;1640787;87;25823;-77
2022/04/18 08:59:11;;;;;;;1.67;1.22;;;;;;;9.03;40.01;101058.78;1636206;87;26804;-77
2022/04/18 09:01:52;;;;;;;2.70;1.07;;;;;;;9.15;40.44;101050.80;1633620;87;26000;-76
2022/04/18 09:04:23;;;;;;;2.42;1.25;;;;;;;9.33;41.18;101052.29;1639747;85;27579;-77
2022/04/18 09:06:52;;;;;;;3.20;1.27;;;;;;;9.48;40.12;101045.76;1642014;85;25828;-77
2022/04/18 09:09:28;;;;;;;3.10;1.05;;;;;;;9.63;38.94;101055.27;1641027;87;25850;-78
2022/04/18 09:11:56;;;;;;;1.57;1.05;;;;;;;9.64;38.24;101047.09;1641799;87;26375;-77
2022/04/18 09:14:25;;;;;;;1.55;1.00;;;;;;;9.62;37.49;101044.25;1641797;85;25856;-77
2022/04/18 09:16:52;;;;;;;1.98;0.90;;;;;;;9.62;36.61;101037.06;1641699;85;27000;-76
2022/04/18 09:19:32;;;;;;;1.12;1.00;;;;;;;9.62;34.96;101022.36;1558483;90;26021;-77
2022/04/18 09:22:01;;;;;;;1.90;1.12;;;;;;;9.61;35.77;101024.69;1614979;87;26534;-77
2022/04/18 09:24:39;;;;;;;3.23;1.00;;;;;;;9.62;35.17;101022.85;1639489;85;25883;-77
2022/04/18 09:27:27;;;;;;;2.70;0.90;;;;;;;9.54;33.95;101027.70;1637194;87;25947;-77
2022/04/18 09:30:05;;;;;;;3.25;1.10;;;;;;;9.52;33.71;101019.01;1639662;87;28442;-77
2022/04/18 09:32:32;;;;;;;1.92;1.20;;;;;;;9.50;34.14;101021.52;1632821;87;25292;-77
2022/04/18 09:35:04;;;;;;;1.07;0.80;;;;;;;9.54;34.42;101035.72;1635850;85;25676;-77
2022/04/18 09:37:32;;;;;;;1.55;0.70;;;;;;;9.57;35.38;101025.19;1628932;87;26120;-77
2022/04/18 09:39:59;;;;;;;1.50;0.93;;;;;;;9.57;35.85;101014.00;1621193;87;25925;-77
2022/04/18 09:42:28;;;;;;;1.62;1.00;;;;;;;9.61;35.04;101006.45;1563801;90;28082;-77
2022/04/18 09:45:08;;;;;;;1.15;0.95;;;;;;;9.60;34.36;101008.28;1583938;90;25949;-77
2022/04/18 09:47:36;;;;;;;;;;;;;;;9.61;35.20;100996.59;1589142;90;26616;-76
2022/04/18 09:50:58;;;;;;;2.47;0.95;;;;;;;9.63;33.63;101004.45;1587498;90;26489;-78
2022/04/18 09:52:44;;;;;;;4.08;1.00;;;;;;;9.61;34.72;100984.56;1582524;90;25968;-77
2022/04/18 09:55:11;;;;;;;1.35;0.75;;;;;;;9.70;35.64;100992.06;1612651;87;28299;-77
2022/04/18 09:57:42;;;;;;;1.32;0.80;;;;;;;9.77;35.56;100983.70;1640477;85;26689;-77
2022/04/18 10:00:11;;;;;;;2.25;1.05;;;;;;;9.81;34.58;100980.50;1618191;85;25866;-76
2022/04/18 10:02:39;;;;;;;0.80;0.80;;;;;;;9.79;35.59;100967.80;1640904;85;26686;-77
2022/04/18 10:05:07;;;;;;;3.27;1.07;;;;;;;9.88;36.95;100979.31;1642224;85;25313;-76
2022/04/18 10:07:34;;;;;;;3.98;1.20;;;;;;;10.05;37.08;100971.55;1642042;85;27465;-77
2022/04/18 10:10:02;;;;;;;2.92;0.78;;;;;;;10.15;34.58;100966.00;1642442;85;25872;-78
2022/04/18 10:12:30;;;;;;;1.52;0.98;;;;;;;10.09;32.84;100964.30;1641484;85;36314;-77
2022/04/18 10:14:56;;;;;;;1.32;0.80;;;;;;;10.05;34.51;100953.62;1642814;85;25817;-77
2022/04/18 10:17:27;;;;;;;2.08;0.88;;;;;;;10.12;34.29;100968.52;1641372;85;25366;-77
2022/04/18 10:20:19;;;;;;;1.62;0.85;;;;;;;10.21;33.92;100956.77;1641422;85;27496;-77
2022/04/18 10:23:06;;;;;;;1.70;0.80;;;;;;;10.27;33.51;100952.04;1641181;87;25899;-77
2022/04/18 10:25:56;;;;;;;3.77;1.20;;;;;;;10.25;34.37;100938.00;1640459;86;25985;-79
2022/04/18 10:28:26;;;;;;;2.15;1.07;;;;;;;10.28;32.18;100930.12;1640821;87;26024;-77
2022/04/18 10:30:59;;;;;;;1.30;0.70;;;;;;;10.33;32.92;100929.09;1640681;87;25781;-78
2022/04/18 10:36:31;;;;;;;1.25;0.95;;;;;;;10.57;33.73;100928.41;1605717;87;26065;-74
2022/04/18 10:38:59;;;;;;;1.57;1.00;;;;;;;10.59;32.83;100921.53;1630067;82;26969;31
2022/04/18 10:41:43;;;;;;;1.25;0.82;;;;;;;10.50;32.21;100926.11;1593494;88;25941;-74
2022/04/18 10:44:15;;;;;;;0.82;0.72;;;;;;;10.44;31.47;100920.13;1583628;88;25978;-75
2022/04/18 10:46:55;;;;;;;1.77;1.30;;;;;;;10.39;31.24;100921.16;1587433;88;28226;-76
2022/04/18 10:49:24;;;;;;;2.22;1.10;;;;;;;10.36;31.17;100919.35;1589382;90;25936;-76
2022/04/18 10:51:53;;;;;;;1.07;0.85;;;;;;;10.31;31.49;100929.25;1588364;90;25871;-76
2022/04/18 10:54:25;;;;;;;3.37;1.00;;;;;;;10.30;32.46;100920.91;1610983;88;25917;-75
2022/04/18 10:57:01;;;;;;;2.50;0.70;;;;;;;10.34;33.05;100905.31;1581117;89;26011;-76
2022/04/18 10:59:32;;;;;;;1.65;1.25;;;;;;;10.43;32.25;100911.79;1607599;88;28320;-75
2022/04/18 11:02:01;;;;;;;1.50;0.82;;;;;;;10.47;32.54;100904.22;1572196;90;26348;-76
2022/04/18 11:04:48;;;;;;;1.22;1.10;;;;;;;10.55;32.79;100910.84;1607559;88;25930;-76
2022/04/18 11:07:11;;;;;;;1.80;0.80;;;;;;;10.70;33.53;100905.88;1599928;88;26435;-75
2022/04/18 11:09:46;;;;;;;1.65;0.90;;;;;;;10.81;34.26;100900.09;1607470;88;26301;-75
2022/04/18 11:12:21;;;;;;;1.85;1.20;;;;;;;11.05;35.56;100898.20;1580236;89;28308;-75
2022/04/18 11:14:54;;;;;;;1.27;0.85;;;;;;;11.29;35.39;100904.66;1591258;89;26534;-76
2022/04/18 11:17:29;;;;;;;2.12;1.07;;;;;;;11.43;34.14;100895.78;1587449;88;25936;-76
2022/04/18 11:19:56;;;;;;;3.75;1.17;;;;;;;11.48;33.15;100883.46;1592653;88;25885;-76
2022/04/18 11:22:24;;;;;;;1.82;1.00;;;;;;;11.52;35.04;100872.71;1590991;89;26024;-75
2022/04/18 11:24:56;;;;;;;1.55;0.85;;;;;;;11.52;32.99;100882.10;1575476;89;27493;-75
2022/04/18 11:27:27;;;;;;;1.98;1.20;;;;;;;11.50;34.68;100886.79;1588505;90;25872;-75
2022/04/18 11:29:55;;;;;;;;;;;;;;;11.52;33.73;100879.42;1579584;90;26082;-75
2022/04/18 11:32:25;;;;;;;1.55;1.00;;;;;;;11.54;32.04;100887.27;1588841;88;25835;-74
2022/04/18 11:34:54;;;;;;;2.22;0.90;;;;;;;11.39;32.19;100876.55;1586895;90;25887;-75
2022/04/18 11:37:39;;;;;;;1.77;1.10;;;;;;;11.39;32.63;100874.37;1585367;90;27505;-75
2022/04/18 11:40:10;;;;;;;2.08;1.10;;;;;;;11.33;31.99;100873.77;1579826;89;26495;-75
2022/04/18 11:42:38;;;;;;;1.70;0.90;;;;;;;11.25;32.87;100861.27;1586344;89;26727;-76
2022/04/18 11:45:08;;;;;;;2.80;1.10;;;;;;;11.30;32.59;100858.88;1584535;89;26558;-76
2022/04/18 11:47:44;;;;;;;2.20;1.22;;;;;;;11.40;32.71;100863.95;1588364;90;25616;-75
2022/04/18 11:50:11;;;;;;;0.95;0.85;;;;;;;11.33;31.40;100857.69;1586275;90;27466;-74
2022/04/18 11:52:40;;;;;;;1.55;1.10;;;;;;;11.30;32.55;100854.86;1587832;90;26032;-76
2022/04/18 11:58:20;;;;;;;1.47;0.80;;;;;;;11.37;31.08;100845.56;1603474;84;26589;-75
2022/04/18 12:09:16;;;;;;;2.20;0.90;;;;;;;11.27;30.13;100829.73;1573337;88;25835;-74